createdAt,value
2022-08-01T00:02:29.686Z,20.77
2022-08-01T00:07:34.048Z,20.70
2022-08-01T00:12:37.134Z,20.67
2022-08-01T00:17:40.354Z,20.60
2022-08-01T00:22:44.485Z,20.54
2022-08-01T00:27:47.520Z,20.45
2022-08-01T00:32:50.316Z,20.38
2022-08-01T00:37:54.536Z,20.33
2022-08-01T00:42:57.443Z,20.26
2022-08-01T00:48:00.266Z,20.25
2022-08-01T00:53:04.631Z,20.21
2022-08-01T00:58:07.659Z,20.17
2022-08-01T01:03:15.944Z,20.14
2022-08-01T01:08:26.265Z,20.13
2022-08-01T01:13:50.453Z,20.09
2022-08-01T01:18:56.781Z,20.08
2022-08-01T01:24:14.656Z,20.10
2022-08-01T01:29:25.982Z,20.11
2022-08-01T01:34:31.259Z,20.15
2022-08-01T01:39:35.898Z,20.17
2022-08-01T01:44:40.653Z,20.20
2022-08-01T01:49:45.967Z,20.23
2022-08-01T01:54:51.700Z,20.25
2022-08-01T01:59:57.951Z,20.27
2022-08-01T02:05:02.948Z,20.29
2022-08-01T02:10:07.872Z,20.29
2022-08-01T02:15:15.065Z,20.33
2022-08-01T02:20:18.329Z,20.32
2022-08-01T02:25:27.488Z,20.27
2022-08-01T02:30:35.074Z,20.28
2022-08-01T02:36:29.748Z,20.25
2022-08-01T02:41:09.767Z,20.23
2022-08-01T02:46:20.399Z,20.23
2022-08-01T02:51:26.977Z,20.24
2022-08-01T02:56:36.593Z,20.22
2022-08-01T03:01:42.020Z,20.23
2022-08-01T03:06:45.400Z,20.21
2022-08-01T03:11:50.027Z,20.21
2022-08-01T03:16:56.076Z,20.18
2022-08-01T03:22:00.395Z,20.17
2022-08-01T03:27:04.723Z,20.17
2022-08-01T03:32:10.492Z,20.11
2022-08-01T03:37:16.972Z,20.08
2022-08-01T03:42:22.791Z,20.07
2022-08-01T03:47:34.369Z,20.02
2022-08-01T03:52:47.112Z,19.99
2022-08-01T03:57:51.029Z,19.98
2022-08-01T04:02:55.864Z,19.90
2022-08-01T04:08:00.404Z,19.84
2022-08-01T04:13:03.578Z,19.78
2022-08-01T04:18:08.223Z,19.79
2022-08-01T04:23:12.707Z,19.77
2022-08-01T04:28:17.559Z,19.78
2022-08-01T04:33:22.450Z,19.79
2022-08-01T04:38:28.982Z,19.78
2022-08-01T04:43:31.761Z,19.78
2022-08-01T04:48:38.590Z,19.76
2022-08-01T04:53:41.346Z,19.84
2022-08-01T04:58:45.762Z,19.83
2022-08-01T05:03:50.696Z,19.85
2022-08-01T05:08:53.434Z,19.96
2022-08-01T05:13:56.220Z,19.94
2022-08-01T05:19:00.350Z,19.91
2022-08-01T05:24:03.390Z,20.03
2022-08-01T05:29:06.662Z,20.10
2022-08-01T05:34:14.890Z,20.15
2022-08-01T05:39:18.259Z,20.13
2022-08-01T05:44:22.604Z,20.10
2022-08-01T05:49:26.843Z,20.30
2022-08-01T05:54:29.913Z,20.44
2022-08-01T05:59:32.755Z,20.55
2022-08-01T06:04:37.072Z,20.55
2022-08-01T06:09:39.904Z,20.71
2022-08-01T06:14:42.690Z,20.73
2022-08-01T06:19:46.891Z,20.72
2022-08-01T06:24:49.790Z,20.79
2022-08-01T06:29:54.436Z,20.98
2022-08-01T06:34:59.121Z,21.10
2022-08-01T06:40:03.040Z,20.99
2022-08-01T06:45:06.439Z,20.85
2022-08-01T06:50:12.150Z,21.00
2022-08-01T06:55:16.646Z,21.15
2022-08-01T07:00:23.275Z,21.47
2022-08-01T07:05:27.996Z,22.02
2022-08-01T07:10:30.995Z,22.37
2022-08-01T07:15:33.776Z,22.69
2022-08-01T07:20:51.175Z,23.06
2022-08-01T07:25:59.340Z,23.12
2022-08-01T07:31:03.673Z,23.46
2022-08-01T07:36:08.159Z,23.71
2022-08-01T07:41:11.903Z,24.54
2022-08-01T07:46:15.072Z,24.32
2022-08-01T07:51:19.350Z,24.08
2022-08-01T07:56:25.730Z,23.95
2022-08-01T08:01:28.739Z,24.04
2022-08-01T08:06:33.048Z,24.23
2022-08-01T08:11:35.818Z,24.05
2022-08-01T08:16:38.723Z,23.98
2022-08-01T08:21:44.402Z,24.34
2022-08-01T08:26:47.728Z,24.35
2022-08-01T08:31:56.974Z,24.36
2022-08-01T08:37:01.462Z,24.36
2022-08-01T08:42:08.900Z,24.18
2022-08-01T08:47:18.997Z,25.23
2022-08-01T08:52:25.127Z,25.31
2022-08-01T08:57:28.763Z,25.46
2022-08-01T09:02:31.775Z,26.27
2022-08-01T09:07:36.022Z,26.86
2022-08-01T09:12:39.070Z,27.12
2022-08-01T09:17:43.399Z,26.75
2022-08-01T09:22:49.230Z,26.59
2022-08-01T09:28:04.891Z,26.66
2022-08-01T09:33:17.957Z,26.66
2022-08-01T09:38:28.087Z,26.81
2022-08-01T09:43:32.966Z,27.00
2022-08-01T09:48:37.887Z,26.94
2022-08-01T09:53:50.945Z,26.76
2022-08-01T09:59:00.968Z,26.38
2022-08-01T10:04:10.985Z,26.02
2022-08-01T10:09:16.489Z,27.07
2022-08-01T10:14:20.823Z,27.63
2022-08-01T10:19:25.793Z,27.83
2022-08-01T10:24:33.850Z,28.05
2022-08-01T10:29:45.858Z,28.31
2022-08-01T10:35:06.816Z,27.85
2022-08-01T10:40:29.968Z,27.70
2022-08-01T10:45:34.353Z,28.02
2022-08-01T10:50:42.875Z,27.84
2022-08-01T10:55:51.104Z,28.59
2022-08-01T11:01:22.707Z,28.71
2022-08-01T11:06:30.620Z,27.95
2022-08-01T11:11:54.883Z,28.51
2022-08-01T11:16:58.226Z,27.97
2022-08-01T11:22:04.749Z,27.93
2022-08-01T11:27:23.642Z,27.88
2022-08-01T11:32:28.571Z,28.47
2022-08-01T11:37:32.252Z,29.39
2022-08-01T11:42:38.404Z,30.26
2022-08-01T11:47:49.941Z,29.99
2022-08-01T11:52:59.415Z,29.96
2022-08-01T11:58:05.386Z,30.03
2022-08-01T12:03:08.977Z,30.36
2022-08-01T12:08:12.260Z,29.63
2022-08-01T12:13:16.447Z,29.56
2022-08-01T12:18:19.780Z,29.10
2022-08-01T12:23:22.871Z,28.35
2022-08-01T12:28:27.131Z,28.53
2022-08-01T12:33:30.840Z,29.34
2022-08-01T12:38:33.992Z,29.38
2022-08-01T12:43:38.099Z,29.04
2022-08-01T12:48:41.205Z,28.56
2022-08-01T12:53:44.123Z,28.16
2022-08-01T12:58:48.216Z,27.82
2022-08-01T13:04:00.021Z,27.42
2022-08-01T13:09:07.905Z,27.61
2022-08-01T13:14:12.146Z,27.84
2022-08-01T13:19:15.645Z,27.89
2022-08-01T13:24:25.823Z,27.89
2022-08-01T13:29:35.109Z,28.72
2022-08-01T13:34:38.269Z,28.58
2022-08-01T13:39:45.330Z,28.29
2022-08-01T13:44:49.533Z,28.89
2022-08-01T13:49:52.569Z,28.46
2022-08-01T13:54:56.730Z,28.24
2022-08-01T14:00:01.650Z,27.96
2022-08-01T14:05:14.820Z,28.10
2022-08-01T14:10:19.884Z,28.49
2022-08-01T14:15:38.265Z,28.04
2022-08-01T14:20:42.363Z,27.32
2022-08-01T14:25:58.209Z,26.69
2022-08-01T14:31:08.861Z,27.16
2022-08-01T14:36:29.309Z,28.94
2022-08-01T14:41:33.722Z,27.90
2022-08-01T14:46:37.934Z,27.53
2022-08-01T14:52:00.268Z,27.25
2022-08-01T14:57:04.049Z,27.18
2022-08-01T15:02:11.491Z,27.02
2022-08-01T15:07:14.918Z,26.96
2022-08-01T15:12:17.787Z,26.74
2022-08-01T15:17:23.727Z,26.62
2022-08-01T15:22:27.650Z,26.67
2022-08-01T15:27:30.794Z,27.69
2022-08-01T15:32:35.207Z,29.98
2022-08-01T15:37:42.648Z,33.10
2022-08-01T15:42:46.807Z,37.29
2022-08-01T15:47:50.935Z,33.27
2022-08-01T15:52:54.222Z,30.49
2022-08-01T15:57:57.244Z,29.36
2022-08-01T16:03:01.314Z,29.39
2022-08-01T16:08:04.674Z,28.67
2022-08-01T16:13:08.101Z,29.61
2022-08-01T16:18:14.459Z,31.90
2022-08-01T16:23:17.344Z,34.34
2022-08-01T16:28:21.434Z,38.08
2022-08-01T16:33:45.221Z,38.61
2022-08-01T16:38:48.446Z,36.16
2022-08-01T16:43:53.269Z,32.91
2022-08-01T16:48:58.780Z,34.82
2022-08-01T16:54:01.915Z,35.71
2022-08-01T16:59:04.723Z,33.38
2022-08-01T17:04:09.010Z,34.88
2022-08-01T17:09:11.800Z,32.90
2022-08-01T17:14:15.654Z,31.71
2022-08-01T17:19:19.827Z,31.31
2022-08-01T17:24:29.711Z,29.34
2022-08-01T17:29:43.275Z,28.13
2022-08-01T17:34:49.980Z,27.65
2022-08-01T17:39:52.775Z,26.97
2022-08-01T17:44:55.646Z,26.45
2022-08-01T17:50:03.855Z,25.89
2022-08-01T17:55:53.274Z,25.64
2022-08-01T18:00:30.552Z,25.19
2022-08-01T18:05:36.844Z,24.97
2022-08-01T18:10:40.264Z,24.69
2022-08-01T18:15:45.144Z,24.51
2022-08-01T18:20:49.264Z,24.33
2022-08-01T18:25:52.041Z,24.26
2022-08-01T18:30:54.960Z,24.12
2022-08-01T18:36:03.678Z,23.98
2022-08-01T18:41:10.148Z,23.88
2022-08-01T18:46:12.995Z,23.72
2022-08-01T18:51:17.199Z,23.54
2022-08-01T18:56:20.693Z,23.40
2022-08-01T19:01:24.455Z,23.21
2022-08-01T19:06:32.339Z,23.06
2022-08-01T19:11:36.318Z,22.83
2022-08-01T19:16:39.308Z,22.62
2022-08-01T19:21:45.002Z,22.42
2022-08-01T19:26:50.759Z,22.22
2022-08-01T19:31:56.085Z,22.08
2022-08-01T19:37:00.429Z,21.95
2022-08-01T19:42:04.134Z,21.81
2022-08-01T19:47:07.313Z,21.71
2022-08-01T19:52:11.907Z,21.58
2022-08-01T19:57:16.876Z,21.46
2022-08-01T20:02:20.754Z,21.33
2022-08-01T20:07:25.071Z,21.24
2022-08-01T20:12:30.272Z,21.14
2022-08-01T20:17:33.806Z,21.02
2022-08-01T20:22:41.456Z,20.86
2022-08-01T20:27:46.428Z,20.71
2022-08-01T20:32:49.536Z,20.49
2022-08-01T20:38:05.464Z,20.39
2022-08-01T20:43:11.697Z,20.25
2022-08-01T20:48:16.485Z,20.14
2022-08-01T20:53:22.125Z,20.06
2022-08-01T20:58:32.478Z,19.72
2022-08-01T21:03:46.518Z,19.64
2022-08-01T21:08:52.349Z,19.47
2022-08-01T21:13:56.292Z,19.41
2022-08-01T21:19:19.147Z,19.33
2022-08-01T21:24:29.892Z,19.18
2022-08-01T21:29:34.571Z,19.04
2022-08-01T21:34:39.214Z,18.92
2022-08-01T21:39:45.017Z,18.84
2022-08-01T21:44:48.462Z,18.68
2022-08-01T21:49:51.271Z,18.55
2022-08-01T21:55:02.554Z,18.50
2022-08-01T22:00:11.866Z,18.39
2022-08-01T22:05:49.956Z,18.31
2022-08-01T22:10:57.865Z,18.22
2022-08-01T22:16:02.074Z,18.12
2022-08-01T22:21:05.203Z,18.04
2022-08-01T22:26:12.008Z,18.01
2022-08-01T22:31:17.306Z,17.89
2022-08-01T22:36:21.049Z,17.76
2022-08-01T22:41:31.183Z,17.69
2022-08-01T22:47:01.306Z,17.64
2022-08-01T22:52:08.778Z,17.54
2022-08-01T22:57:24.603Z,17.45
2022-08-01T23:02:30.058Z,17.29
2022-08-01T23:07:35.248Z,17.22
2022-08-01T23:12:40.634Z,17.06
2022-08-01T23:17:44.275Z,17.04
2022-08-01T23:22:48.845Z,16.98
2022-08-01T23:28:05.566Z,16.92
2022-08-01T23:33:08.866Z,16.86
2022-08-01T23:38:11.691Z,16.72
2022-08-01T23:43:17.490Z,16.66
2022-08-01T23:48:20.911Z,16.54
2022-08-01T23:53:23.645Z,16.42
2022-08-01T23:58:28.658Z,16.41
